KSS weather

Sikasso Airport
Sikasso, Sikasso Region, Mali

Public forecast

Using degrees Celsius for public forecast. Weather courtesy of forecast.io.

Current aviation weather report (METAR) for Sikasso Airport

Report is more than 6 hours old.

Retrieved 2019/10/17 11:20 UTC (2 days ago):

GASK 171120Z 18004KT 9999 TS SCT020 FEW030CB 31/23 Q1015

Closest aviation forecast (TAF) to Sikasso Airport

Closest forecast is Bobo Dioulasso Airport, 81.3 nm (150.5 km) E. Retrieved 2019-10-19 00:04 UTC (4 hours ago):

TAF DFOO 182300Z 1900/1924 20008KT 9999 FEW016 TEMPO 1914/1924 4000 TSRA SCT016 FEW033CB